Date,TemperatureHighF,TemperatureAvgF,TemperatureLowF,DewpointHighF,DewpointAvgF,DewpointLowF,HumidityHigh,HumidityAvg,HumidityLow,PressureMaxIn,PressureMinIn,WindSpeedMaxMPH,WindSpeedAvgMPH,GustSpeedMaxMPH,PrecipitationSumIn
2013-10-1,76.5,63.6,55.5,56.8,50.6,46.9,81,64,41,28.05,27.96,3,-670,3,0.00
2013-10-2,77.9,63.5,52.9,59.1,51.1,44.4,81,65,43,28.11,27.99,2,-753,2,0.00
2013-10-3,76.5,65.3,58.5,60.6,54.3,49.5,83,68,47,28.05,27.99,3,-867,3,0.00
2013-10-4,80.5,67.1,56.9,60.9,54.5,50.1,84,66,41,28.11,28.02,1,-732,1,0.00
2013-10-5,83.1,68.0,56.8,60.8,54.5,49.4,83,64,39,28.08,27.96,3,-534,3,0.00
2013-10-6,82.1,69.3,58.6,59.7,53.6,49.8,82,60,40,27.96,27.79,3,-622,3,0.00
2013-10-7,70.7,61.8,52.6,57.9,47.8,38.2,79,61,41,27.99,27.70,1,-968,1,0.37
2013-10-8,68.5,56.7,46.9,43.1,38.8,35.4,65,52,38,28.11,27.99,0,-944,0,0.00
2013-10-9,72.2,58.3,47.9,40.5,36.7,32.1,61,46,28,28.14,28.02,0,-964,0,0.00
2013-10-10,67.9,55.2,43.8,45.4,38.2,29.2,66,53,43,28.05,27.96,0,-889,0,0.00
2013-10-11,74.0,60.5,48.0,49.2,42.6,38.9,78,54,31,27.99,27.91,3,-363,4,0.00
2013-10-12,70.2,63.6,59.5,55.3,52.7,48.2,74,68,58,28.02,27.91,2,0,3,0.00
2013-10-13,70.8,63.6,59.6,58.8,55.9,53.6,83,76,63,28.11,28.02,2,-252,2,0.00
2013-10-14,73.7,64.0,57.7,56.7,52.9,49.6,80,68,50,28.14,28.02,1,-832,2,0.00
2013-10-15,72.1,62.1,53.8,50.9,48.2,44.4,75,61,45,28.08,27.94,3,-97,3,0.00
2013-10-16,65.5,60.3,53.7,53.4,48.3,43.2,76,65,56,27.96,27.88,2,-370,2,0.00
2013-10-17,63.3,60.4,55.2,61.0,55.7,47.1,92,84,74,27.88,27.73,0,-668,0,0.13
2013-10-18,64.2,53.5,43.1,47.4,40.8,35.2,76,63,43,27.96,27.88,1,-854,1,0.00
2013-10-19,60.2,53.8,48.9,48.0,43.0,35.9,80,67,53,27.88,27.79,4,-899,4,0.00
2013-10-20,64.0,48.5,36.4,35.8,30.2,25.7,70,51,27,27.99,27.88,1,-552,1,0.00
2013-10-21,67.1,50.9,38.7,39.7,32.4,25.1,66,50,32,28.02,27.91,4,0,6,0.00
2013-10-22,62.3,53.6,46.9,43.8,39.7,33.3,71,60,47,27.91,27.73,5,-10,6,0.00
2013-10-23,52.3,46.6,38.1,43.8,34.0,24.6,76,62,46,27.94,27.67,5,-165,9,0.08
2013-10-24,48.6,40.1,34.3,30.5,26.5,23.5,69,59,43,28.05,27.94,6,1,6,0.00
2013-10-25,40.8,36.8,31.6,28.7,22.4,17.8,64,56,47,28.26,28.05,4,-3,4,0.00
2013-10-26,54.8,40.4,26.1,27.4,20.7,15.1,62,46,30,28.20,27.96,4,1,5,0.00
2013-10-27,65.1,52.7,41.3,35.9,29.4,23.1,52,41,33,28.02,27.94,4,1,6,0.00
2013-10-28,60.4,54.7,50.5,50.3,44.5,33.8,79,69,53,28.14,28.02,2,-208,3,0.04
2013-10-29,67.9,59.1,54.7,50.6,47.3,42.8,82,66,44,28.20,28.11,0,-928,0,0.00
2013-10-30,67.9,59.5,54.6,54.7,50.1,44.8,84,71,57,28.14,28.05,0,-904,0,0.29
2013-10-31,67.3,61.2,54.9,55.8,49.0,45.6,86,66,48,28.05,27.61,2,-881,2,0.00